Time;durP1;ratioP1;P1;durP2;ratioP2;P2;SDS_P1;SDS_P2;PMS_P1;PMS_P2;Temp;Humidity;BMP_temperature;BMP_pressure;BME280_temperature;BME280_humidity;BME280_pressure;Samples;Min_cycle;Max_cycle;Signal;HPM_P1;HPM_P2
2023/04/01 00:01:44;;;;;;;;;;;10.10;99.90;;;;;;5108560;28;19911;-66
2023/04/01 00:04:09;;;;;;;;;;;10.10;99.90;;;;;;5108864;28;19977;-66
2023/04/01 00:06:35;;;;;;;;;;;10.10;99.90;;;;;;5110384;27;19912;-66
2023/04/01 00:09:00;;;;;;;;;;;10.10;99.90;;;;;;5101070;28;19911;-66
2023/04/01 00:11:27;;;;;;;;;;;10.10;99.90;;;;;;5108460;28;19912;-66
2023/04/01 00:13:53;;;;;;;;;;;10.10;99.90;;;;;;5109902;28;20436;-66
2023/04/01 00:16:18;;;;;;;;;;;10.00;99.90;;;;;;5108638;28;19916;-66
2023/04/01 00:18:44;;;;;;;;;;;10.00;99.90;;;;;;5109695;28;20380;-66
2023/04/01 00:21:09;;;;;;;;;;;10.00;99.90;;;;;;5109321;28;20576;-66
2023/04/01 00:23:35;;;;;;;;;;;10.00;99.90;;;;;;5109995;28;19916;-66
2023/04/01 00:26:02;;;;;;;;;;;10.00;99.90;;;;;;5108787;28;19911;-66
2023/04/01 00:28:27;;;;;;;;;;;10.00;99.90;;;;;;5109717;28;19939;-66
2023/04/01 00:30:53;;;;;;;;;;;10.00;99.90;;;;;;5109762;28;20300;-66
2023/04/01 00:33:19;;;;;;;;;;;10.00;99.90;;;;;;5109555;28;19960;-66
2023/04/01 00:35:45;;;;;;;;;;;10.00;99.90;;;;;;5109648;28;19919;-66
2023/04/01 00:38:11;;;;;;;;;;;10.00;99.90;;;;;;5108307;28;19912;-66
2023/04/01 00:40:38;;;;;;;;;;;10.00;99.90;;;;;;5109413;28;20352;-66
2023/04/01 00:43:09;;;;;;;;;;;10.00;99.90;;;;;;5109742;27;20387;-66
2023/04/01 00:45:37;;;;;;;;;;;10.00;99.90;;;;;;5109259;28;19911;-66
2023/04/01 00:48:23;;;;;;;;;;;10.00;99.90;;;;;;5109462;28;19919;-66
2023/04/01 00:50:50;;;;;;;;;;;10.00;99.90;;;;;;5107405;28;19911;-66
2023/04/01 00:53:16;;;;;;;;;;;10.00;99.90;;;;;;5109181;28;19911;-66
2023/04/01 00:55:45;;;;;;;;;;;10.00;99.90;;;;;;5109520;28;19920;-67
2023/04/01 00:58:13;;;;;;;;;;;9.90;99.90;;;;;;5109463;28;20422;-66
2023/04/01 01:00:39;;;;;;;;;;;9.90;99.90;;;;;;5109019;28;19948;-66
2023/04/01 01:03:04;;;;;;;;;;;9.90;99.90;;;;;;5109205;28;19970;-66
2023/04/01 01:05:42;;;;;;;;;;;10.00;99.90;;;;;;5108953;28;19966;-66
2023/04/01 01:08:14;;;;;;;;;;;9.90;99.90;;;;;;5108388;28;19923;-66
2023/04/01 01:10:39;;;;;;;;;;;9.90;99.90;;;;;;5108389;28;20368;-66
2023/04/01 01:13:16;;;;;;;;;;;9.90;99.90;;;;;;5107545;28;19918;-66
2023/04/01 01:16:08;;;;;;;;;;;9.90;99.90;;;;;;5108923;28;20408;-66
2023/04/01 01:18:34;;;;;;;;;;;9.90;99.90;;;;;;5106663;28;20342;-66
2023/04/01 01:21:19;;;;;;;;;;;9.90;99.90;;;;;;5108309;28;19916;-66
2023/04/01 01:23:48;;;;;;;;;;;9.90;99.90;;;;;;5107071;28;19912;-66
2023/04/01 01:26:32;;;;;;;;;;;9.90;99.90;;;;;;5108365;28;19912;-66
2023/04/01 01:29:16;;;;;;;;;;;9.90;99.90;;;;;;5108314;28;20284;-66
2023/04/01 01:31:58;;;;;;;;;;;9.90;99.90;;;;;;5106187;28;19920;-66
2023/04/01 01:34:32;;;;;;;;;;;9.90;99.90;;;;;;5086430;28;20421;-66
2023/04/01 01:37:01;;;;;;;;;;;9.90;99.90;;;;;;5087908;28;20023;-66
2023/04/01 01:39:29;;;;;;;;;;;9.90;99.90;;;;;;5087952;28;20524;-66
2023/04/01 01:41:57;;;;;;;;;;;9.90;99.90;;;;;;5107824;28;20026;-66
2023/04/01 01:44:23;;;;;;;;;;;9.90;99.90;;;;;;5107280;28;19922;-66
2023/04/01 01:46:49;;;;;;;;;;;9.90;99.90;;;;;;5096212;28;19998;-66
2023/04/01 01:49:16;;;;;;;;;;;9.80;99.90;;;;;;5096358;28;19922;-66
2023/04/01 01:51:42;;;;;;;;;;;9.80;99.90;;;;;;5107848;28;20018;-66
2023/04/01 01:54:12;;;;;;;;;;;9.90;99.90;;;;;;5102866;28;19923;-66
2023/04/01 01:56:38;;;;;;;;;;;9.80;99.90;;;;;;5107784;28;19915;-66
2023/04/01 01:59:07;;;;;;;;;;;9.80;99.90;;;;;;5107990;28;19949;-66
2023/04/01 02:01:35;;;;;;;;;;;9.80;99.90;;;;;;5108079;28;19978;-66
2023/04/01 02:04:00;;;;;;;;;;;9.80;99.90;;;;;;5112086;28;19916;-66
2023/04/01 02:06:27;;;;;;;;;;;9.80;99.90;;;;;;5112579;28;19981;-66
2023/04/01 02:09:02;;;;;;;;;;;9.80;99.90;;;;;;5112320;28;20026;-66
2023/04/01 02:11:33;;;;;;;;;;;9.80;99.90;;;;;;5112248;28;19915;-66
2023/04/01 02:14:07;;;;;;;;;;;9.80;99.90;;;;;;5112092;28;19908;-66
2023/04/01 02:16:53;;;;;;;;;;;9.80;99.90;;;;;;5112764;28;19908;-66
2023/04/01 02:19:22;;;;;;;;;;;9.80;99.90;;;;;;5112211;28;20357;-66
2023/04/01 02:21:51;;;;;;;;;;;9.80;99.90;;;;;;5111880;27;19911;-66
2023/04/01 02:24:17;;;;;;;;;;;9.80;99.90;;;;;;5111701;28;19916;-66
2023/04/01 02:26:44;;;;;;;;;;;9.80;99.90;;;;;;5109970;28;19912;-66
2023/04/01 02:29:11;;;;;;;;;;;9.80;99.90;;;;;;5111833;27;19912;-66
2023/04/01 02:31:36;;;;;;;;;;;9.80;99.90;;;;;;5111705;27;19911;-66
2023/04/01 02:34:03;;;;;;;;;;;9.80;99.90;;;;;;5111949;28;20417;-66
2023/04/01 02:36:28;;;;;;;;;;;9.80;99.90;;;;;;5112007;28;19908;-66
2023/04/01 02:38:55;;;;;;;;;;;9.80;99.90;;;;;;5111894;28;19908;-66
2023/04/01 02:41:21;;;;;;;;;;;9.80;99.90;;;;;;5111059;28;20019;-66
2023/04/01 02:43:46;;;;;;;;;;;9.80;99.90;;;;;;5105627;28;19943;-66
2023/04/01 02:46:12;;;;;;;;;;;9.70;99.90;;;;;;5111437;28;19951;-66
2023/04/01 02:48:37;;;;;;;;;;;9.80;99.90;;;;;;5111192;28;19916;-66
2023/04/01 02:51:03;;;;;;;;;;;9.70;99.90;;;;;;5111291;28;19908;-66
2023/04/01 02:53:29;;;;;;;;;;;9.70;99.90;;;;;;5111370;28;19936;-66
2023/04/01 02:55:55;;;;;;;;;;;9.70;99.90;;;;;;5111505;28;19908;-66
2023/04/01 02:58:21;;;;;;;;;;;9.70;99.90;;;;;;5111385;28;19911;-66
2023/04/01 03:00:46;;;;;;;;;;;9.70;99.90;;;;;;5109659;28;20650;-66
2023/04/01 03:03:13;;;;;;;;;;;9.70;99.90;;;;;;5111041;28;20019;-66
2023/04/01 03:05:38;;;;;;;;;;;9.70;99.90;;;;;;5111214;28;19908;-66
2023/04/01 03:08:04;;;;;;;;;;;9.70;99.90;;;;;;5109789;28;19919;-66
2023/04/01 03:10:30;;;;;;;;;;;9.70;99.90;;;;;;5110903;28;19923;-66
2023/04/01 03:12:55;;;;;;;;;;;9.70;99.90;;;;;;5110830;28;20428;-66
2023/04/01 03:15:21;;;;;;;;;;;9.70;99.90;;;;;;5111092;28;19912;-66
2023/04/01 03:17:46;;;;;;;;;;;9.70;99.90;;;;;;5110725;28;19918;-66
2023/04/01 03:20:12;;;;;;;;;;;9.70;99.90;;;;;;5109588;28;20422;-66
2023/04/01 03:22:38;;;;;;;;;;;9.70;99.90;;;;;;5110493;28;19960;-66
2023/04/01 03:25:05;;;;;;;;;;;9.70;99.90;;;;;;5110879;28;19912;-66
2023/04/01 03:27:30;;;;;;;;;;;9.70;99.90;;;;;;5110635;28;19912;-66
2023/04/01 03:29:55;;;;;;;;;;;9.70;99.90;;;;;;5110736;28;20380;-66
2023/04/01 03:32:21;;;;;;;;;;;9.70;99.90;;;;;;5110469;28;19918;-66
2023/04/01 03:34:46;;;;;;;;;;;9.70;99.90;;;;;;5110959;28;19912;-66
2023/04/01 03:37:12;;;;;;;;;;;9.70;99.90;;;;;;5110881;28;19935;-66
2023/04/01 03:39:37;;;;;;;;;;;9.60;99.90;;;;;;5110547;28;20566;-66
2023/04/01 03:42:03;;;;;;;;;;;9.60;99.90;;;;;;5109646;28;19914;-66
2023/04/01 03:44:32;;;;;;;;;;;9.70;99.90;;;;;;5108576;28;19922;-66
2023/04/01 03:46:58;;;;;;;;;;;9.60;99.90;;;;;;5110367;28;20006;-66
2023/04/01 03:49:24;;;;;;;;;;;9.60;99.90;;;;;;5110731;28;19990;-66
2023/04/01 03:51:49;;;;;;;;;;;9.60;99.90;;;;;;5110559;28;19911;-66
2023/04/01 03:54:15;;;;;;;;;;;9.60;99.90;;;;;;5110289;28;19918;-66
2023/04/01 03:56:40;;;;;;;;;;;9.60;99.90;;;;;;5110612;28;19916;-66
2023/04/01 03:59:06;;;;;;;;;;;9.60;99.90;;;;;;5110335;28;19919;-66
2023/04/01 04:01:32;;;;;;;;;;;9.60;99.90;;;;;;5110154;28;19912;-66
2023/04/01 04:03:58;;;;;;;;;;;9.60;99.90;;;;;;5109589;28;19962;-66
2023/04/01 04:06:23;;;;;;;;;;;9.60;99.90;;;;;;5110292;28;19996;-66
2023/04/01 04:08:49;;;;;;;;;;;9.60;99.90;;;;;;5110449;28;19965;-66
2023/04/01 04:11:15;;;;;;;;;;;9.60;99.90;;;;;;5110163;28;19934;-66
2023/04/01 04:13:41;;;;;;;;;;;9.60;99.90;;;;;;5110097;28;19919;-66
2023/04/01 04:16:06;;;;;;;;;;;9.60;99.90;;;;;;5110103;28;19999;-66
2023/04/01 04:18:32;;;;;;;;;;;9.60;99.90;;;;;;5109847;28;20026;-66
2023/04/01 04:20:57;;;;;;;;;;;9.60;99.90;;;;;;5109671;28;19947;-66
2023/04/01 04:23:23;;;;;;;;;;;9.60;99.90;;;;;;5109928;28;19916;-66
2023/04/01 04:25:56;;;;;;;;;;;9.60;99.90;;;;;;5109597;28;20645;-66
2023/04/01 04:28:21;;;;;;;;;;;9.60;99.90;;;;;;5109792;28;19979;-66
2023/04/01 04:30:47;;;;;;;;;;;9.60;99.90;;;;;;5109065;28;19920;-66
2023/04/01 04:33:15;;;;;;;;;;;9.60;99.90;;;;;;5109496;28;19919;-66
2023/04/01 04:35:41;;;;;;;;;;;9.60;99.90;;;;;;5109448;28;19962;-66
2023/04/01 04:38:06;;;;;;;;;;;9.60;99.90;;;;;;5109597;28;19947;-66
2023/04/01 04:40:32;;;;;;;;;;;9.60;99.90;;;;;;5109157;28;19911;-66
2023/04/01 04:42:57;;;;;;;;;;;9.60;99.90;;;;;;5103030;28;20368;-66
2023/04/01 04:45:23;;;;;;;;;;;9.60;99.90;;;;;;5109063;28;19908;-66
2023/04/01 04:47:48;;;;;;;;;;;9.60;99.90;;;;;;5108317;28;19916;-66
2023/04/01 04:50:14;;;;;;;;;;;9.60;99.90;;;;;;5109314;28;19935;-66
2023/04/01 04:52:40;;;;;;;;;;;9.60;99.90;;;;;;5107557;28;20749;-66
2023/04/01 04:55:05;;;;;;;;;;;9.60;99.90;;;;;;5109349;28;19916;-65
2023/04/01 04:57:31;;;;;;;;;;;9.60;99.90;;;;;;5109205;28;19964;-66
2023/04/01 04:59:56;;;;;;;;;;;9.50;99.90;;;;;;5109217;28;19920;-66
2023/04/01 05:02:22;;;;;;;;;;;9.50;99.90;;;;;;5108616;28;19979;-66
2023/04/01 05:04:47;;;;;;;;;;;9.50;99.90;;;;;;5107482;28;19912;-66
2023/04/01 05:07:13;;;;;;;;;;;9.50;99.90;;;;;;5109063;28;19919;-66
2023/04/01 05:09:38;;;;;;;;;;;9.50;99.90;;;;;;5109195;28;20455;-66
2023/04/01 05:12:04;;;;;;;;;;;9.60;99.90;;;;;;5107314;28;19951;-66
2023/04/01 05:14:30;;;;;;;;;;;9.50;99.90;;;;;;5108830;28;19914;-66
2023/04/01 05:16:55;;;;;;;;;;;9.50;99.90;;;;;;5109029;28;19911;-66
2023/04/01 05:19:21;;;;;;;;;;;9.50;99.90;;;;;;5108934;28;19919;-66
2023/04/01 05:21:46;;;;;;;;;;;9.50;99.90;;;;;;5108507;28;19912;-66
2023/04/01 05:24:12;;;;;;;;;;;9.50;99.90;;;;;;5108591;28;20019;-66
2023/04/01 05:26:37;;;;;;;;;;;9.50;99.90;;;;;;5108825;28;19919;-65
2023/04/01 05:29:03;;;;;;;;;;;9.60;99.90;;;;;;5108669;28;19911;-66
2023/04/01 05:31:29;;;;;;;;;;;9.50;99.90;;;;;;5108692;28;19908;-66
2023/04/01 05:33:55;;;;;;;;;;;9.50;99.90;;;;;;5107024;28;19915;-66
2023/04/01 05:36:20;;;;;;;;;;;9.50;99.90;;;;;;5108244;28;19912;-66
2023/04/01 05:38:47;;;;;;;;;;;9.50;99.90;;;;;;5108315;28;19911;-66
2023/04/01 05:41:12;;;;;;;;;;;9.50;99.90;;;;;;5108391;28;19911;-66
2023/04/01 05:43:39;;;;;;;;;;;9.50;99.90;;;;;;5107759;28;20540;-66
2023/04/01 05:46:05;;;;;;;;;;;9.50;99.90;;;;;;5108248;28;19908;-66
2023/04/01 05:48:30;;;;;;;;;;;9.50;99.90;;;;;;5108270;28;19919;-66
2023/04/01 05:50:56;;;;;;;;;;;9.50;99.90;;;;;;5108155;28;19919;-66
2023/04/01 05:53:22;;;;;;;;;;;9.50;99.90;;;;;;5108574;28;20326;-66
2023/04/01 05:55:47;;;;;;;;;;;9.50;99.90;;;;;;5108232;28;19916;-66
2023/04/01 05:58:13;;;;;;;;;;;9.50;99.90;;;;;;5107827;28;20583;-66
2023/04/01 06:00:38;;;;;;;;;;;9.50;99.90;;;;;;5108102;28;19987;-66
2023/04/01 06:03:04;;;;;;;;;;;9.50;99.90;;;;;;5108071;28;20528;-66
2023/04/01 06:05:36;;;;;;;;;;;9.50;99.90;;;;;;5108258;28;19908;-66
2023/04/01 06:08:06;;;;;;;;;;;9.50;99.90;;;;;;5108221;28;19946;-66
2023/04/01 06:10:39;;;;;;;;;;;9.50;99.90;;;;;;5106382;28;19912;-66
2023/04/01 06:13:25;;;;;;;;;;;9.50;99.90;;;;;;5108411;28;20242;-66
2023/04/01 06:15:59;;;;;;;;;;;9.50;99.90;;;;;;5107669;28;19915;-66
2023/04/01 06:18:25;;;;;;;;;;;9.50;99.90;;;;;;5107915;28;19912;-66
2023/04/01 06:21:23;;;;;;;;;;;9.60;99.90;;;;;;5107763;28;19925;-66
2023/04/01 06:23:51;;;;;;;;;;;9.60;99.90;;;;;;5074563;28;19916;-66
2023/04/01 06:26:39;;;;;;;;;;;9.60;99.90;;;;;;5087689;28;20630;-66
2023/04/01 06:29:10;;;;;;;;;;;9.60;99.90;;;;;;5087506;28;19912;-66
2023/04/01 06:31:42;;;;;;;;;;;9.60;99.90;;;;;;5087479;28;19919;-66
2023/04/01 06:34:22;;;;;;;;;;;9.60;99.90;;;;;;5087409;28;19919;-66
2023/04/01 06:37:00;;;;;;;;;;;9.50;99.90;;;;;;5087780;28;20287;-66
2023/04/01 06:39:33;;;;;;;;;;;9.60;99.90;;;;;;5098176;28;20007;-66
2023/04/01 06:42:01;;;;;;;;;;;9.60;99.90;;;;;;5087004;28;20349;-66
2023/04/01 06:44:39;;;;;;;;;;;9.60;99.90;;;;;;5100114;28;19923;-66
2023/04/01 06:47:13;;;;;;;;;;;9.60;99.90;;;;;;5107088;28;19908;-66
2023/04/01 06:49:39;;;;;;;;;;;9.60;99.90;;;;;;5110386;28;19908;-66
2023/04/01 06:52:13;;;;;;;;;;;9.60;99.90;;;;;;5110652;28;19915;-66
2023/04/01 06:54:48;;;;;;;;;;;9.60;99.90;;;;;;5110850;28;19919;-66
2023/04/01 06:57:22;;;;;;;;;;;9.60;99.90;;;;;;5110582;28;20379;-66
2023/04/01 06:59:48;;;;;;;;;;;9.60;99.90;;;;;;5110761;28;19912;-66
2023/04/01 07:02:17;;;;;;;;;;;9.60;99.90;;;;;;5110350;28;20436;-66
2023/04/01 07:04:44;;;;;;;;;;;9.60;99.90;;;;;;5110524;28;20052;-66
2023/04/01 07:07:15;;;;;;;;;;;9.60;99.90;;;;;;5109324;28;19919;-66
2023/04/01 07:09:43;;;;;;;;;;;9.60;99.90;;;;;;5109137;28;20321;-66
2023/04/01 07:12:31;;;;;;;;;;;9.60;99.90;;;;;;5110298;27;19908;-66
2023/04/01 07:15:01;;;;;;;;;;;9.60;99.90;;;;;;5101721;28;20626;-66
2023/04/01 07:17:35;;;;;;;;;;;9.60;99.90;;;;;;5110310;28;19912;-66
2023/04/01 07:20:13;;;;;;;;;;;9.60;99.90;;;;;;5110215;28;19919;-66
2023/04/01 07:22:41;;;;;;;;;;;9.60;99.90;;;;;;5110083;28;19912;-66
2023/04/01 07:25:25;;;;;;;;;;;9.60;99.90;;;;;;5110185;28;19977;-66
2023/04/01 07:27:52;;;;;;;;;;;9.60;99.90;;;;;;5110127;28;19915;-66
2023/04/01 07:30:20;;;;;;;;;;;9.60;99.90;;;;;;5108858;28;20449;-66
2023/04/01 07:32:48;;;;;;;;;;;9.60;99.90;;;;;;5109959;28;19916;-66
2023/04/01 07:35:26;;;;;;;;;;;9.70;99.90;;;;;;5110041;28;19907;-66
2023/04/01 07:38:18;;;;;;;;;;;9.70;99.90;;;;;;5109811;28;19922;-66
2023/04/01 07:40:47;;;;;;;;;;;9.70;99.90;;;;;;5109593;28;19991;-66
2023/04/01 07:43:31;;;;;;;;;;;9.70;99.90;;;;;;5108869;28;19916;-66
2023/04/01 07:45:59;;;;;;;;;;;9.70;99.90;;;;;;5107745;28;19992;-66
2023/04/01 07:48:44;;;;;;;;;;;9.70;99.90;;;;;;5108779;28;19918;-66
2023/04/01 07:51:12;;;;;;;;;;;9.70;99.90;;;;;;5109394;28;19995;-66
2023/04/01 07:53:44;;;;;;;;;;;9.70;99.90;;;;;;5109023;28;20010;-66
2023/04/01 07:56:24;;;;;;;;;;;9.80;99.90;;;;;;5107684;28;19908;-66
2023/04/01 07:59:16;;;;;;;;;;;9.70;99.90;;;;;;5107446;28;19912;-66
2023/04/01 08:01:44;;;;;;;;;;;9.70;99.90;;;;;;5108401;28;19960;-66
2023/04/01 08:04:22;;;;;;;;;;;9.80;99.90;;;;;;5099909;28;19981;-66
2023/04/01 08:07:08;;;;;;;;;;;9.80;99.90;;;;;;5099200;27;19923;-66
2023/04/01 08:09:33;;;;;;;;;;;9.80;99.90;;;;;;5092241;28;19942;-66
2023/04/01 08:12:17;;;;;;;;;;;9.80;99.90;;;;;;5108822;28;19935;-66
2023/04/01 08:15:06;;;;;;;;;;;9.80;99.90;;;;;;5108818;28;19965;-66
2023/04/01 08:17:54;;;;;;;;;;;9.90;99.90;;;;;;5088070;28;19915;-66
2023/04/01 08:20:28;;;;;;;;;;;9.90;99.90;;;;;;5107841;28;19946;-66
2023/04/01 08:23:20;;;;;;;;;;;9.90;99.90;;;;;;5107523;28;19992;-66
2023/04/01 08:25:50;;;;;;;;;;;9.90;99.90;;;;;;5078138;28;20019;-66
2023/04/01 08:28:22;;;;;;;;;;;9.90;99.90;;;;;;5088336;28;20052;-66
2023/04/01 08:31:03;;;;;;;;;;;9.90;99.90;;;;;;5088248;28;19956;-66
2023/04/01 08:33:29;;;;;;;;;;;9.90;99.90;;;;;;5086917;28;20421;-66
2023/04/01 08:36:16;;;;;;;;;;;9.90;99.90;;;;;;5088539;28;19912;-66
2023/04/01 08:38:53;;;;;;;;;;;9.90;99.90;;;;;;5088549;28;19915;-66
2023/04/01 08:41:19;;;;;;;;;;;9.90;99.90;;;;;;5103458;28;19974;-66
2023/04/01 08:44:03;;;;;;;;;;;9.90;99.90;;;;;;5103681;28;20065;-66
2023/04/01 08:46:37;;;;;;;;;;;9.90;99.90;;;;;;5109297;28;19922;-66
2023/04/01 08:49:06;;;;;;;;;;;9.90;99.90;;;;;;5109004;28;19939;-66
2023/04/01 08:51:43;;;;;;;;;;;9.90;99.90;;;;;;5109148;28;19968;-66
2023/04/01 08:54:16;;;;;;;;;;;9.90;99.90;;;;;;5109346;28;20361;-66
2023/04/01 08:57:17;;;;;;;;;;;9.90;99.90;;;;;;5109145;28;20668;-66
2023/04/01 08:59:42;;;;;;;;;;;9.90;99.90;;;;;;5065755;28;19913;-66
2023/04/01 09:02:25;;;;;;;;;;;9.90;99.90;;;;;;5099469;28;19912;-66
2023/04/01 09:05:02;;;;;;;;;;;9.90;99.90;;;;;;5109374;28;20415;-66
2023/04/01 09:07:28;;;;;;;;;;;9.90;99.90;;;;;;5109104;27;19919;-66
2023/04/01 09:09:56;;;;;;;;;;;9.90;99.90;;;;;;5109252;28;19907;-66
2023/04/01 09:12:45;;;;;;;;;;;10.00;99.90;;;;;;5108480;28;19965;-66
2023/04/01 09:15:30;;;;;;;;;;;10.00;99.90;;;;;;5108816;28;19911;-66
2023/04/01 09:18:07;;;;;;;;;;;10.00;99.90;;;;;;5108694;28;19954;-66
2023/04/01 09:20:39;;;;;;;;;;;10.00;99.90;;;;;;5108301;28;20019;-66
2023/04/01 09:23:17;;;;;;;;;;;10.00;99.90;;;;;;5108572;28;19942;-66
2023/04/01 09:25:50;;;;;;;;;;;10.00;99.90;;;;;;5108568;28;20803;-66
2023/04/01 09:28:20;;;;;;;;;;;10.00;99.90;;;;;;5108040;28;20635;-66
2023/04/01 09:30:45;;;;;;;;;;;10.00;99.90;;;;;;5107780;28;20522;-66
2023/04/01 09:33:27;;;;;;;;;;;10.10;99.90;;;;;;5107271;28;19912;-66
2023/04/01 09:35:59;;;;;;;;;;;10.00;99.90;;;;;;5106972;28;19912;-66
2023/04/01 09:38:39;;;;;;;;;;;10.00;99.90;;;;;;5108165;28;19943;-66
2023/04/01 09:41:07;;;;;;;;;;;10.10;99.90;;;;;;5108076;28;20006;-66
2023/04/01 09:44:08;;;;;;;;;;;10.10;99.90;;;;;;5101673;28;19964;-66
2023/04/01 09:46:56;;;;;;;;;;;10.10;99.90;;;;;;5044958;28;19909;-66
2023/04/01 09:49:34;;;;;;;;;;;10.10;99.90;;;;;;5082816;28;19912;-66
2023/04/01 09:52:02;;;;;;;;;;;10.10;99.90;;;;;;5088396;28;19912;-66
2023/04/01 09:54:31;;;;;;;;;;;10.10;99.90;;;;;;5106906;28;19991;-66
2023/04/01 09:57:14;;;;;;;;;;;10.10;99.90;;;;;;5107895;28;19918;-66
2023/04/01 09:59:46;;;;;;;;;;;10.10;99.90;;;;;;5107593;28;19912;-66
2023/04/01 10:02:30;;;;;;;;;;;10.10;99.90;;;;;;5107493;28;19922;-66
2023/04/01 10:04:59;;;;;;;;;;;10.10;99.90;;;;;;5106796;28;19916;-66
2023/04/01 10:07:27;;;;;;;;;;;10.20;99.90;;;;;;5108190;28;19912;-66
2023/04/01 10:10:11;;;;;;;;;;;10.20;99.90;;;;;;5108165;28;20375;-66
2023/04/01 10:12:55;;;;;;;;;;;10.20;99.90;;;;;;5107973;28;19911;-66
2023/04/01 14:54:00;;;;;;;;;;;10.70;99.90;;;;;;5079211;28;20694;-66
2023/04/01 14:56:39;;;;;;;;;;;10.60;99.90;;;;;;5103491;28;19915;-66
2023/04/01 14:59:09;;;;;;;;;;;10.60;99.90;;;;;;5097142;27;19968;-66
2023/04/01 15:01:45;;;;;;;;;;;10.60;99.90;;;;;;5105853;28;19919;-66
2023/04/01 15:04:10;;;;;;;;;;;10.70;99.90;;;;;;5104762;28;20014;-66
2023/04/01 15:06:36;;;;;;;;;;;10.60;99.90;;;;;;5106544;28;19998;-66
2023/04/01 15:09:01;;;;;;;;;;;10.70;99.90;;;;;;5104641;28;19912;-66
2023/04/01 15:11:42;;;;;;;;;;;10.70;99.90;;;;;;5110102;28;19997;-66
2023/04/01 15:14:26;;;;;;;;;;;10.70;99.90;;;;;;5107639;28;20363;-66
2023/04/01 15:16:54;;;;;;;;;;;10.70;99.90;;;;;;5102808;28;20795;-66
2023/04/01 15:19:40;;;;;;;;;;;10.70;99.90;;;;;;5108748;28;19920;-66
2023/04/01 15:22:17;;;;;;;;;;;10.70;99.90;;;;;;5074723;28;19943;-66
2023/04/01 15:24:43;;;;;;;;;;;10.60;99.90;;;;;;5101696;28;20028;-66
2023/04/01 15:27:08;;;;;;;;;;;10.60;99.90;;;;;;5107845;28;20010;-66
2023/04/01 15:29:40;;;;;;;;;;;10.60;99.90;;;;;;5109428;28;20249;-66
2023/04/01 15:32:08;;;;;;;;;;;10.60;99.90;;;;;;5107478;28;20021;-66
2023/04/01 15:34:39;;;;;;;;;;;10.70;99.90;;;;;;5109746;28;19915;-66
2023/04/01 15:37:14;;;;;;;;;;;10.60;99.90;;;;;;5107717;28;19998;-66
2023/04/01 15:39:57;;;;;;;;;;;10.60;99.90;;;;;;5109143;28;19923;-66
2023/04/01 15:42:23;;;;;;;;;;;10.60;99.90;;;;;;5106306;28;19911;-66
2023/04/01 15:44:51;;;;;;;;;;;10.70;99.90;;;;;;5109081;28;19918;-66
2023/04/01 15:47:26;;;;;;;;;;;10.70;99.90;;;;;;5107343;28;19919;-66
2023/04/01 15:50:10;;;;;;;;;;;10.70;99.90;;;;;;5105665;28;19919;-66
2023/04/01 15:52:40;;;;;;;;;;;10.70;99.90;;;;;;5106957;28;20388;-66
2023/04/01 15:55:06;;;;;;;;;;;10.70;99.90;;;;;;5108567;27;19911;-66
2023/04/01 15:57:37;;;;;;;;;;;10.70;99.90;;;;;;5108793;28;20000;-66
2023/04/01 16:00:12;;;;;;;;;;;10.70;99.90;;;;;;5106825;28;19989;-66
2023/04/01 16:02:46;;;;;;;;;;;10.70;99.90;;;;;;5109159;28;19911;-66
2023/04/01 16:05:30;;;;;;;;;;;10.70;99.90;;;;;;5109773;27;19916;-66
2023/04/01 16:07:55;;;;;;;;;;;10.70;99.90;;;;;;5108512;28;19914;-66
2023/04/01 16:10:30;;;;;;;;;;;10.70;99.90;;;;;;5109338;28;19912;-66
2023/04/01 16:13:03;;;;;;;;;;;10.70;99.90;;;;;;5109070;28;19961;-66
2023/04/01 16:15:40;;;;;;;;;;;10.60;99.90;;;;;;5107891;28;19907;-66
2023/04/01 16:18:26;;;;;;;;;;;10.60;99.90;;;;;;5108382;28;19911;-66
2023/04/01 16:20:55;;;;;;;;;;;10.60;99.90;;;;;;5108743;28;20573;-66
2023/04/01 16:23:29;;;;;;;;;;;10.60;99.90;;;;;;5107809;28;19951;-66
2023/04/01 16:26:05;;;;;;;;;;;10.60;99.90;;;;;;5107592;28;19916;-66
2023/04/01 16:28:42;;;;;;;;;;;10.60;99.90;;;;;;5109030;28;20375;-66
2023/04/01 16:31:34;;;;;;;;;;;10.60;99.90;;;;;;5109133;28;20006;-66
2023/04/01 16:34:14;;;;;;;;;;;10.60;99.90;;;;;;5087925;28;19908;-66
2023/04/01 16:36:59;;;;;;;;;;;10.60;99.90;;;;;;5107657;28;19952;-66
2023/04/01 16:39:27;;;;;;;;;;;10.60;99.90;;;;;;5108022;28;20407;-66
2023/04/01 16:41:53;;;;;;;;;;;10.60;99.90;;;;;;5107100;28;19912;-66
2023/04/01 16:44:20;;;;;;;;;;;10.60;99.90;;;;;;5104953;28;19916;-66
2023/04/01 16:46:48;;;;;;;;;;;10.50;99.90;;;;;;5108541;28;19965;-66
2023/04/01 16:49:24;;;;;;;;;;;10.50;99.90;;;;;;5106343;28;19947;-66
2023/04/01 16:51:54;;;;;;;;;;;10.50;99.90;;;;;;5108136;28;20414;-66
2023/04/01 16:54:23;;;;;;;;;;;10.50;99.90;;;;;;5101930;28;20352;-66
2023/04/01 16:56:48;;;;;;;;;;;10.50;99.90;;;;;;5107145;28;20060;-66
2023/04/01 16:59:26;;;;;;;;;;;10.50;99.90;;;;;;5105264;28;19911;-66
2023/04/01 17:01:57;;;;;;;;;;;10.50;99.90;;;;;;5106858;28;19915;-66
2023/04/01 17:04:25;;;;;;;;;;;10.50;99.90;;;;;;5102744;28;20587;-66
2023/04/01 17:06:57;;;;;;;;;;;10.50;99.90;;;;;;5107375;28;19943;-66
2023/04/01 17:09:39;;;;;;;;;;;10.50;99.90;;;;;;5105441;28;19915;-66
2023/04/01 17:12:27;;;;;;;;;;;10.40;99.90;;;;;;5103554;28;20454;-66
2023/04/01 17:15:05;;;;;;;;;;;10.40;99.90;;;;;;5104087;28;19918;-66
2023/04/01 17:17:36;;;;;;;;;;;10.40;99.90;;;;;;5105224;28;20509;-66
2023/04/01 17:20:21;;;;;;;;;;;10.40;99.90;;;;;;5104060;28;19973;-66
2023/04/01 17:22:52;;;;;;;;;;;10.40;99.90;;;;;;5104930;28;19972;-66
2023/04/01 17:25:18;;;;;;;;;;;10.40;99.90;;;;;;5105022;28;19920;-66
2023/04/01 17:27:51;;;;;;;;;;;10.40;99.90;;;;;;5105400;28;20349;-66
2023/04/01 17:30:35;;;;;;;;;;;10.40;99.90;;;;;;5105378;28;20396;-66
2023/04/01 17:33:04;;;;;;;;;;;10.40;99.90;;;;;;5104998;28;19912;-66
2023/04/01 17:35:32;;;;;;;;;;;10.40;99.90;;;;;;5106120;28;19984;-66
2023/04/01 17:38:05;;;;;;;;;;;10.40;99.90;;;;;;5105459;28;19915;-66
2023/04/01 17:40:33;;;;;;;;;;;10.40;99.90;;;;;;5103055;28;19916;-66
2023/04/01 17:43:07;;;;;;;;;;;10.40;99.90;;;;;;5101127;28;19912;-66
2023/04/01 17:46:05;;;;;;;;;;;10.30;99.90;;;;;;5105969;28;19912;-66
2023/04/01 17:48:41;;;;;;;;;;;10.30;99.90;;;;;;5082433;28;19916;-66
2023/04/01 17:51:07;;;;;;;;;;;10.30;99.90;;;;;;5106571;28;19950;-66
2023/04/01 17:53:32;;;;;;;;;;;10.30;99.90;;;;;;5104414;28;19916;-66
2023/04/01 17:56:04;;;;;;;;;;;10.30;99.90;;;;;;5106449;28;20339;-66
2023/04/01 17:58:37;;;;;;;;;;;10.30;99.90;;;;;;5103486;28;20010;-66
2023/04/01 18:01:21;;;;;;;;;;;10.30;99.90;;;;;;5104500;28;19912;-66
2023/04/01 18:03:47;;;;;;;;;;;10.30;99.90;;;;;;5102329;28;19923;-66
2023/04/01 18:06:36;;;;;;;;;;;10.30;99.90;;;;;;5105810;28;19995;-66
2023/04/01 18:09:16;;;;;;;;;;;10.30;99.90;;;;;;5096863;28;19912;-66
2023/04/01 18:11:52;;;;;;;;;;;10.30;99.90;;;;;;5104562;28;19912;-66
2023/04/01 18:14:28;;;;;;;;;;;10.30;99.90;;;;;;5097209;28;19969;-66
2023/04/01 18:17:19;;;;;;;;;;;10.20;99.90;;;;;;5103335;28;20360;-66
2023/04/01 18:19:48;;;;;;;;;;;10.20;99.90;;;;;;5082556;28;19924;-66
2023/04/01 18:22:28;;;;;;;;;;;10.20;99.90;;;;;;5104963;28;19908;-66
2023/04/01 18:24:55;;;;;;;;;;;10.20;99.90;;;;;;5103345;28;19916;-66
2023/04/01 18:27:29;;;;;;;;;;;10.20;99.90;;;;;;5105092;28;19912;-66
2023/04/01 18:30:13;;;;;;;;;;;10.20;99.90;;;;;;5103498;28;19908;-66
2023/04/01 18:32:41;;;;;;;;;;;10.20;99.90;;;;;;5131268;27;19912;-66
2023/04/01 18:35:16;;;;;;;;;;;10.20;99.90;;;;;;5104103;28;19965;-66
2023/04/01 18:38:02;;;;;;;;;;;10.20;99.90;;;;;;5096809;28;20678;-66
2023/04/01 18:40:33;;;;;;;;;;;10.20;99.90;;;;;;5100766;28;19912;-66
2023/04/01 18:43:08;;;;;;;;;;;10.20;99.90;;;;;;5094697;28;20003;-66
2023/04/01 18:45:40;;;;;;;;;;;10.20;99.90;;;;;;5109109;28;19908;-66
2023/04/01 18:48:24;;;;;;;;;;;10.20;99.90;;;;;;5105812;28;20470;-66
2023/04/01 18:50:49;;;;;;;;;;;10.20;99.90;;;;;;5105401;28;19912;-66
2023/04/01 18:53:34;;;;;;;;;;;10.20;99.90;;;;;;5105908;28;19911;-66
2023/04/01 18:56:03;;;;;;;;;;;10.20;99.90;;;;;;5106546;28;19907;-66
2023/04/01 18:58:29;;;;;;;;;;;10.10;99.90;;;;;;5106165;28;19951;-66
2023/04/01 19:01:03;;;;;;;;;;;10.10;99.90;;;;;;5110726;28;19947;-66
2023/04/01 19:03:47;;;;;;;;;;;10.10;99.90;;;;;;5105508;28;19948;-66
2023/04/01 19:06:29;;;;;;;;;;;10.10;99.90;;;;;;5110510;28;19940;-66
2023/04/01 19:08:54;;;;;;;;;;;10.10;99.90;;;;;;5101991;28;19916;-66
2023/04/01 19:11:50;;;;;;;;;;;10.10;99.90;;;;;;5108812;28;19919;-66
2023/04/01 19:14:18;;;;;;;;;;;10.10;99.90;;;;;;5087878;28;19915;-66
2023/04/01 19:17:19;;;;;;;;;;;10.10;99.90;;;;;;5102523;28;19930;-66
2023/04/01 19:19:51;;;;;;;;;;;10.10;99.90;;;;;;5062070;28;19920;-66
2023/04/01 19:22:22;;;;;;;;;;;10.10;99.90;;;;;;5099068;28;19923;-66
2023/04/01 19:24:56;;;;;;;;;;;10.10;99.90;;;;;;5108537;28;19966;-66
2023/04/01 19:27:24;;;;;;;;;;;10.10;99.90;;;;;;5107879;28;19918;-66
2023/04/01 19:30:10;;;;;;;;;;;10.10;99.90;;;;;;5109896;28;19943;-66